Airfield :
LOGIN :

Register | Disclaimer

   EN    FR    IT 

 










Legend :    VFR   Marginal VFR   IFR   Intensive IFR   Very Intensive IFR
Visi :
Ceiling :
>= 8 km
>= 3000ft
5 to 8 km
1000 to 3000 ft
1500m to 5 km
500 to 1000 ft
800 to 1500m
200 to 500 ft
< 800m
< 200 ft
Symbols :   Thunderstorms  Fog  Heavy snow  Heavy precipitations  Wind > 20 kt
SIGMETs :     Misc.  Thunderstorms  Icing  Turbulence  Mountain Waves  Volcanic Ashes







- Airport Elevation : 228 ft
- IATA code : OPO


LPPR - Porto Fr. Sa Carneiro

CURRENT METAR :
  • 222130Z VRB03KT 9999 FEW020 FEW025CB BKN030 08/04 Q1014

EXPIRED METARs :
  • 222100Z 20005KT 190V310 9999 FEW020 FEW025CB BKN030 08/04 Q1014
  • 222030Z 26004KT 200V300 9999 FEW020 FEW027CB BKN033 08/04 Q1014
  • 222000Z 24003KT 200V300 9999 FEW020 FEW025CB SCT040 07/04 Q1014
  • 221930Z 27005KT 230V320 9999 FEW018 FEW025CB SCT030 07/04 Q1014
  • 221900Z 31007KT 280V340 9999 FEW025 FEW030CB SCT048 07/02 Q1015

TAF TAF LPPR
Valid from the 22 at 18:00 until the 23 at 18:00 UTC


221700Z 2218/2318 30013KT 9999 SCT020
TEMPO 2218/2318 5000 SHRA BKN015 FEW020CB
PROB30
TEMPO 2218/2221 30020G30KT 3000 TSRAGS SCT018CB
BECMG 2221/2223 VRB03KT
BECMG 2310/2312 33010KT
No reported NOTAMs for that airfield.
2 SIGMETs reported for the Lisboa FIR (LPPC) :
 
Embedded thunderstorms
LPPC SIGMET 5 VALID 222145/222345 LPPT
LPPC LISBON FIR EMBD TS FCST N OF N3930 AND E OF W01300 TOP ABV FL300 MOV E 25KT NC=
Embedded thunderstorms
LPPC SIGMET 4 VALID 221945/222145 LPPT
LPPC LISBON FIR EMBD TS FCST N OF N3930 AND E OF W01300 TOP ABV FL300 MOV E 25KT NC=



MET'MAP, your aeronautical weather chart ! - Copyright ORBIFLY December 2007 - Disclaimer

ORBIFLY MET'MAP TEAM :

Programming & Development : Alexandra Zaïnal
Concept & Development : Baudouin d'Aumeries
Co-Development & Prog : Marc-Olivier Méhu
Technical & hardware support : Manuel Goepfert

Contact : metmap@orbifly.com




SOURCES & CREDITS :

   NOAA